createdAt,value
2023-05-09T00:00:49.890Z,7.23
2023-05-09T00:03:16.796Z,7.90
2023-05-09T00:05:43.918Z,7.37
2023-05-09T00:08:11.108Z,7.30
2023-05-09T00:10:38.022Z,7.10
2023-05-09T00:13:05.011Z,7.50
2023-05-09T00:15:31.991Z,7.17
2023-05-09T00:17:59.406Z,8.57
2023-05-09T00:20:26.429Z,7.47
2023-05-09T00:22:53.370Z,7.83
2023-05-09T00:25:20.360Z,7.90
2023-05-09T00:27:47.298Z,7.50
2023-05-09T00:30:14.257Z,6.43
2023-05-09T00:32:41.701Z,7.30
2023-05-09T00:35:11.755Z,7.40
2023-05-09T00:37:38.792Z,7.70
2023-05-09T00:40:07.556Z,7.50
2023-05-09T00:42:35.357Z,6.73
2023-05-09T00:45:02.679Z,7.03
2023-05-09T00:47:29.727Z,6.97
2023-05-09T00:49:58.440Z,7.90
2023-05-09T00:52:26.603Z,7.50
2023-05-09T00:54:55.513Z,7.47
2023-05-09T00:57:22.987Z,8.27
2023-05-09T00:59:50.239Z,7.00
2023-05-09T01:02:18.189Z,7.33
2023-05-09T01:04:46.541Z,6.93
2023-05-09T01:07:34.970Z,7.50
2023-05-09T01:10:26.512Z,7.30
2023-05-09T01:13:28.854Z,7.30
2023-05-09T01:16:09.158Z,6.27
2023-05-09T01:19:00.875Z,7.60
2023-05-09T01:21:30.503Z,7.27
2023-05-09T01:24:27.111Z,6.63
2023-05-09T01:27:22.620Z,6.90
2023-05-09T01:29:57.213Z,7.20
2023-05-09T01:32:27.482Z,7.50
2023-05-09T01:35:04.463Z,7.03
2023-05-09T01:37:34.124Z,7.20
2023-05-09T01:40:08.318Z,7.10
2023-05-09T01:42:43.909Z,6.73
2023-05-09T01:45:12.749Z,7.53
2023-05-09T01:47:40.943Z,7.23
2023-05-09T01:50:11.593Z,7.00
2023-05-09T01:52:40.483Z,7.10
2023-05-09T01:55:08.937Z,6.97
2023-05-09T01:57:37.431Z,8.00
2023-05-09T02:00:07.924Z,6.40
2023-05-09T02:02:40.757Z,6.97
2023-05-09T02:05:11.249Z,6.17
2023-05-09T02:07:41.238Z,6.93
2023-05-09T02:10:10.071Z,6.70
2023-05-09T02:12:38.262Z,6.93
2023-05-09T02:15:06.735Z,7.57
2023-05-09T02:17:33.919Z,7.10
2023-05-09T02:20:00.923Z,6.97
2023-05-09T02:22:28.172Z,6.43
2023-05-09T02:24:55.306Z,5.90
2023-05-09T02:27:22.511Z,7.13
2023-05-09T02:29:54.053Z,6.10
2023-05-09T02:32:25.757Z,7.27
2023-05-09T02:34:54.172Z,7.10
2023-05-09T02:37:22.060Z,8.07
2023-05-09T02:39:48.947Z,6.40
2023-05-09T02:42:22.671Z,6.53
2023-05-09T02:44:49.558Z,5.90
2023-05-09T02:47:16.454Z,8.30
2023-05-09T02:49:43.322Z,7.07
2023-05-09T02:52:11.022Z,5.63
2023-05-09T02:54:38.631Z,7.00
2023-05-09T02:57:05.962Z,6.43
2023-05-09T02:59:33.484Z,6.03
2023-05-09T03:02:02.485Z,5.43
2023-05-09T03:04:30.495Z,6.27
2023-05-09T03:06:57.425Z,7.00
2023-05-09T03:09:28.166Z,6.17
2023-05-09T03:11:56.498Z,5.70
2023-05-09T03:14:23.432Z,6.70
2023-05-09T03:16:50.363Z,5.70
2023-05-09T03:19:25.680Z,5.17
2023-05-09T03:21:52.654Z,5.47
2023-05-09T03:24:20.297Z,5.40
2023-05-09T03:26:47.974Z,5.63
2023-05-09T03:29:14.898Z,5.50
2023-05-09T03:31:41.832Z,6.27
2023-05-09T03:34:14.843Z,6.23
2023-05-09T03:36:43.755Z,5.30
2023-05-09T03:39:12.851Z,6.30
2023-05-09T03:41:43.593Z,5.57
2023-05-09T03:44:10.943Z,5.47
2023-05-09T03:46:37.949Z,6.10
2023-05-09T03:49:05.431Z,5.40
2023-05-09T03:51:32.773Z,5.57
2023-05-09T03:54:01.920Z,5.20
2023-05-09T03:56:29.493Z,5.40
2023-05-09T03:58:56.481Z,4.77
2023-05-09T04:01:25.386Z,5.03
2023-05-09T04:03:52.829Z,5.53
2023-05-09T04:06:21.365Z,5.10
2023-05-09T04:08:48.570Z,4.67
2023-05-09T04:11:15.558Z,5.33
2023-05-09T04:13:45.896Z,5.00
2023-05-09T04:16:23.529Z,5.33
2023-05-09T04:18:50.498Z,5.67
2023-05-09T04:21:17.405Z,5.03
2023-05-09T04:23:47.939Z,5.23
2023-05-09T04:26:17.973Z,5.50
2023-05-09T04:28:47.988Z,5.13
2023-05-09T04:31:17.492Z,5.20
2023-05-09T04:33:47.764Z,5.23
2023-05-09T04:36:15.705Z,5.70
2023-05-09T04:38:42.829Z,5.43
2023-05-09T04:41:13.803Z,5.20
2023-05-09T04:43:40.715Z,5.77
2023-05-09T04:46:07.831Z,4.70
2023-05-09T04:48:36.118Z,4.60
2023-05-09T04:51:03.032Z,5.40
2023-05-09T04:53:29.978Z,5.17
2023-05-09T04:55:58.107Z,5.23
2023-05-09T04:58:26.534Z,5.70
2023-05-09T05:00:54.679Z,5.50
2023-05-09T05:03:22.318Z,5.27
2023-05-09T05:05:49.398Z,4.50
2023-05-09T05:08:16.405Z,4.73
2023-05-09T05:10:44.129Z,4.40
2023-05-09T05:13:13.666Z,5.43
2023-05-09T05:15:44.816Z,5.40
2023-05-09T05:18:12.771Z,4.70
2023-05-09T05:20:43.425Z,5.03
2023-05-09T05:23:10.930Z,4.30
2023-05-09T05:25:38.259Z,4.60
2023-05-09T05:28:05.786Z,4.57
2023-05-09T05:30:34.299Z,4.50
2023-05-09T05:33:02.469Z,4.43
2023-05-09T05:35:29.552Z,5.47
2023-05-09T05:37:57.555Z,5.77
2023-05-09T05:40:26.141Z,4.60
2023-05-09T05:42:54.545Z,4.87
2023-05-09T05:45:21.984Z,5.30
2023-05-09T05:47:52.697Z,5.23
2023-05-09T05:50:20.323Z,5.30
2023-05-09T05:52:47.412Z,5.03
2023-05-09T05:55:16.265Z,4.70
2023-05-09T05:57:43.408Z,4.50
2023-05-09T06:00:14.848Z,5.10
2023-05-09T06:02:47.894Z,4.40
2023-05-09T06:05:22.131Z,5.00
2023-05-09T06:07:50.433Z,5.10
2023-05-09T06:10:17.330Z,4.90
2023-05-09T06:12:45.614Z,4.33
2023-05-09T06:15:12.962Z,4.23
2023-05-09T06:17:43.859Z,5.13
2023-05-09T06:20:10.957Z,4.93
2023-05-09T06:22:38.353Z,4.40
2023-05-09T06:25:06.440Z,4.60
2023-05-09T06:27:35.043Z,5.20
2023-05-09T06:30:08.306Z,4.17
2023-05-09T06:32:41.407Z,4.77
2023-05-09T06:35:08.462Z,4.33
2023-05-09T06:37:35.364Z,4.83
2023-05-09T06:40:02.235Z,4.50
2023-05-09T06:42:30.034Z,4.13
2023-05-09T06:44:56.927Z,4.53
2023-05-09T06:47:23.887Z,4.20
2023-05-09T06:49:50.865Z,4.40
2023-05-09T06:52:17.705Z,4.43
2023-05-09T06:54:44.566Z,4.90
2023-05-09T06:57:11.484Z,4.87
2023-05-09T06:59:38.700Z,4.60
2023-05-09T07:02:05.751Z,4.17
2023-05-09T07:04:32.855Z,5.13
2023-05-09T07:07:00.787Z,3.97
2023-05-09T07:09:30.613Z,4.30
2023-05-09T07:11:57.478Z,4.73
2023-05-09T07:14:24.328Z,4.20
2023-05-09T07:16:51.252Z,4.20
2023-05-09T07:19:18.233Z,4.27
2023-05-09T07:21:45.265Z,4.30
2023-05-09T07:24:12.164Z,4.50
2023-05-09T07:26:39.083Z,3.93
2023-05-09T07:29:05.971Z,3.90
2023-05-09T07:31:35.128Z,4.23
2023-05-09T07:34:03.621Z,3.83
2023-05-09T07:36:30.519Z,3.90
2023-05-09T07:38:57.404Z,4.50
2023-05-09T07:41:24.308Z,4.00
2023-05-09T07:43:51.179Z,3.73
2023-05-09T07:46:18.169Z,4.13
2023-05-09T07:48:45.273Z,4.17
2023-05-09T07:51:12.190Z,3.63
2023-05-09T07:53:39.050Z,4.40
2023-05-09T07:56:06.787Z,4.13
2023-05-09T07:58:33.799Z,4.03
2023-05-09T08:01:00.683Z,4.30
2023-05-09T08:03:27.659Z,4.03
2023-05-09T08:05:56.138Z,4.60
2023-05-09T08:08:23.598Z,4.17
2023-05-09T08:10:50.545Z,3.77
2023-05-09T08:13:18.883Z,4.40
2023-05-09T08:15:45.811Z,3.30
2023-05-09T08:18:12.742Z,4.13
2023-05-09T08:20:39.712Z,5.20
2023-05-09T08:23:07.021Z,4.00
2023-05-09T08:25:33.994Z,4.00
2023-05-09T08:28:00.980Z,3.90
2023-05-09T08:30:29.327Z,4.47
2023-05-09T08:32:56.550Z,4.57
2023-05-09T08:35:24.705Z,3.90
2023-05-09T08:37:51.636Z,4.37
2023-05-09T08:40:18.674Z,4.33
2023-05-09T08:42:46.123Z,4.30
2023-05-09T08:45:15.073Z,3.93
2023-05-09T08:47:42.513Z,3.93
2023-05-09T08:50:11.647Z,4.20
2023-05-09T08:52:38.765Z,4.40
2023-05-09T08:55:06.238Z,3.97
2023-05-09T08:57:36.737Z,4.70
2023-05-09T09:00:06.872Z,4.00
2023-05-09T09:02:35.803Z,4.60
2023-05-09T09:05:02.949Z,3.80
2023-05-09T09:07:31.329Z,4.20
2023-05-09T09:09:58.965Z,4.70
2023-05-09T09:12:26.660Z,5.30
2023-05-09T09:14:55.940Z,4.43
2023-05-09T09:17:28.989Z,4.10
2023-05-09T09:20:02.538Z,4.07
2023-05-09T09:22:33.920Z,3.77
2023-05-09T09:25:01.998Z,4.03
2023-05-09T09:27:28.908Z,3.90
2023-05-09T09:30:06.578Z,4.37
2023-05-09T09:32:34.306Z,3.30
2023-05-09T09:35:06.983Z,3.27
2023-05-09T09:37:35.534Z,3.80
2023-05-09T09:40:04.039Z,3.37
2023-05-09T09:42:48.097Z,3.33
2023-05-09T09:45:20.022Z,4.10
2023-05-09T09:47:49.941Z,3.73
2023-05-09T09:50:23.352Z,3.13
2023-05-09T09:52:56.030Z,3.20
2023-05-09T09:55:24.537Z,3.10
2023-05-09T09:57:52.325Z,2.80
2023-05-09T10:00:26.054Z,3.30
2023-05-09T10:02:56.098Z,3.50
2023-05-09T10:05:31.323Z,3.10
2023-05-09T10:08:00.752Z,3.53
2023-05-09T10:10:30.749Z,3.60
2023-05-09T10:13:00.217Z,3.13
2023-05-09T10:15:41.370Z,3.73
2023-05-09T10:18:20.258Z,3.23
2023-05-09T10:20:47.490Z,3.30
2023-05-09T10:23:16.569Z,3.20
2023-05-09T10:25:49.287Z,3.30
2023-05-09T10:28:21.796Z,3.40
2023-05-09T10:31:06.504Z,3.47
2023-05-09T10:33:44.143Z,3.93
2023-05-09T10:36:12.149Z,3.10
2023-05-09T10:38:39.893Z,3.80
2023-05-09T10:41:07.312Z,4.00
2023-05-09T10:43:36.612Z,3.50
2023-05-09T10:46:05.226Z,3.27
2023-05-09T10:48:33.797Z,3.53
2023-05-09T10:51:03.061Z,3.67
2023-05-09T10:53:48.635Z,3.47
2023-05-09T10:56:33.719Z,3.20
2023-05-09T10:59:00.922Z,3.43
2023-05-09T11:01:38.846Z,3.47
2023-05-09T11:04:11.306Z,3.80
2023-05-09T11:06:55.789Z,3.80
2023-05-09T11:09:32.713Z,3.43
2023-05-09T11:12:05.372Z,3.80
2023-05-09T11:14:40.584Z,3.13
2023-05-09T11:17:10.879Z,3.90
2023-05-09T11:19:45.397Z,3.00
2023-05-09T11:22:16.160Z,4.03
2023-05-09T11:24:51.329Z,3.30
2023-05-09T11:27:24.605Z,3.40
2023-05-09T11:29:53.280Z,3.23
2023-05-09T11:32:22.416Z,3.67
2023-05-09T11:34:49.865Z,5.00
2023-05-09T11:37:18.304Z,2.90
2023-05-09T11:40:04.848Z,2.80
2023-05-09T11:42:32.470Z,3.10
2023-05-09T11:44:59.735Z,3.67
2023-05-09T11:47:28.921Z,4.07
2023-05-09T11:49:55.967Z,3.80
2023-05-09T11:52:22.821Z,3.93
2023-05-09T11:54:50.193Z,3.47
2023-05-09T11:57:17.901Z,3.63
2023-05-09T11:59:51.445Z,4.10
2023-05-09T12:02:19.221Z,4.27
2023-05-09T12:04:46.129Z,3.93
2023-05-09T12:07:13.216Z,3.73
2023-05-09T12:09:40.321Z,3.50
2023-05-09T12:12:14.321Z,4.37
2023-05-09T12:14:42.076Z,3.77
2023-05-09T12:17:09.508Z,3.10
2023-05-09T12:19:36.936Z,3.50
2023-05-09T12:22:06.665Z,3.03
2023-05-09T12:24:37.397Z,3.40
2023-05-09T12:27:05.182Z,3.10
2023-05-09T12:29:32.128Z,3.07
2023-05-09T12:32:00.236Z,3.77
2023-05-09T12:34:27.211Z,3.30
2023-05-09T12:36:54.080Z,3.97
2023-05-09T12:39:22.949Z,3.67
2023-05-09T12:42:01.024Z,3.33
2023-05-09T12:44:29.804Z,3.53
2023-05-09T12:47:02.856Z,3.70
2023-05-09T12:49:31.717Z,3.90
2023-05-09T12:52:02.997Z,3.87
2023-05-09T12:54:31.453Z,3.50
2023-05-09T12:56:58.851Z,3.73
2023-05-09T12:59:30.254Z,3.50
2023-05-09T13:01:59.704Z,3.23
2023-05-09T13:04:28.646Z,3.23
2023-05-09T13:06:57.995Z,3.77
2023-05-09T13:09:26.527Z,3.40
2023-05-09T13:11:54.488Z,3.87
2023-05-09T13:14:23.122Z,4.00
2023-05-09T13:16:50.078Z,3.93
2023-05-09T13:19:17.167Z,3.50
2023-05-09T13:21:44.056Z,3.70
2023-05-09T13:24:10.913Z,3.50
2023-05-09T13:26:37.782Z,3.70
2023-05-09T13:29:04.635Z,3.20
2023-05-09T13:31:31.864Z,3.47
2023-05-09T13:33:58.774Z,3.47
2023-05-09T13:36:25.654Z,3.50
2023-05-09T13:38:52.526Z,3.80
2023-05-09T13:41:23.668Z,4.03
2023-05-09T13:43:50.956Z,2.87
2023-05-09T13:46:17.856Z,3.00
2023-05-09T13:48:44.895Z,3.20
2023-05-09T13:51:11.786Z,3.30
2023-05-09T13:53:39.370Z,3.67
2023-05-09T13:56:09.443Z,3.03
2023-05-09T13:58:36.841Z,3.10
2023-05-09T14:01:03.864Z,4.00
2023-05-09T14:03:31.714Z,3.97
2023-05-09T14:05:59.701Z,3.40
2023-05-09T14:08:26.582Z,3.57
2023-05-09T14:10:53.521Z,3.80
2023-05-09T14:13:20.449Z,3.97
2023-05-09T14:15:47.440Z,2.90
2023-05-09T14:18:17.653Z,3.90
2023-05-09T14:20:46.157Z,3.40
2023-05-09T14:23:13.501Z,4.27
2023-05-09T14:25:40.441Z,4.63
2023-05-09T14:28:09.349Z,3.70
2023-05-09T14:30:36.780Z,3.70
2023-05-09T14:33:03.659Z,4.10
2023-05-09T14:35:32.851Z,3.47
2023-05-09T14:38:03.170Z,3.60
2023-05-09T14:40:31.885Z,3.87
2023-05-09T14:43:02.253Z,4.07
2023-05-09T14:45:30.301Z,3.80
2023-05-09T14:47:57.712Z,4.00
2023-05-09T14:50:24.655Z,3.83
2023-05-09T14:52:52.093Z,3.97
2023-05-09T14:55:19.406Z,4.53
2023-05-09T14:57:46.371Z,3.60
2023-05-09T15:00:21.445Z,3.70
2023-05-09T15:02:50.075Z,4.70
2023-05-09T15:05:17.616Z,3.60
2023-05-09T15:07:44.574Z,3.20
2023-05-09T15:10:11.626Z,3.43
2023-05-09T15:12:38.590Z,3.77
2023-05-09T15:15:17.886Z,3.47
2023-05-09T15:17:45.904Z,3.93
2023-05-09T15:20:18.175Z,3.73
2023-05-09T15:22:47.175Z,4.07
2023-05-09T15:25:14.723Z,3.43
2023-05-09T15:27:41.619Z,3.80
2023-05-09T15:30:10.056Z,3.90
2023-05-09T15:32:42.899Z,4.80
2023-05-09T15:35:10.330Z,4.30
2023-05-09T15:37:37.642Z,3.90
2023-05-09T15:40:05.285Z,3.83
2023-05-09T15:42:32.245Z,4.17
2023-05-09T15:44:59.188Z,4.23
2023-05-09T15:47:26.176Z,3.53
2023-05-09T15:49:53.441Z,3.77
2023-05-09T15:52:20.331Z,3.80
2023-05-09T15:54:47.313Z,3.67
2023-05-09T15:57:14.236Z,4.40
2023-05-09T15:59:41.287Z,3.63
2023-05-09T16:02:08.289Z,4.00
2023-05-09T16:04:35.216Z,4.37
2023-05-09T16:07:02.408Z,4.43
2023-05-09T16:09:29.435Z,3.63
2023-05-09T16:11:56.656Z,4.60
2023-05-09T16:14:23.823Z,3.90
2023-05-09T16:16:52.404Z,3.60
2023-05-09T16:19:19.284Z,3.57
2023-05-09T16:21:46.836Z,4.10
2023-05-09T16:24:13.788Z,3.80
2023-05-09T16:26:40.678Z,3.60
2023-05-09T16:29:07.568Z,3.43
2023-05-09T16:31:35.673Z,3.87
2023-05-09T16:34:02.975Z,3.90
2023-05-09T16:36:30.342Z,4.13
2023-05-09T16:38:57.544Z,4.37
2023-05-09T16:41:24.444Z,3.90
2023-05-09T16:43:51.722Z,3.37
2023-05-09T16:46:18.654Z,3.40
2023-05-09T16:48:45.589Z,3.30
2023-05-09T16:51:12.485Z,3.40
2023-05-09T16:53:39.367Z,3.40
2023-05-09T16:56:07.499Z,3.30
2023-05-09T16:58:36.132Z,3.80
2023-05-09T17:01:03.878Z,4.20
2023-05-09T17:03:30.841Z,3.83
2023-05-09T17:05:57.757Z,3.17
2023-05-09T17:08:24.661Z,3.57
2023-05-09T17:10:51.556Z,4.17
2023-05-09T17:13:18.895Z,3.70
2023-05-09T17:15:46.174Z,3.53
2023-05-09T17:18:17.043Z,3.20
2023-05-09T17:20:46.336Z,4.00
2023-05-09T17:23:13.204Z,3.60
2023-05-09T17:25:40.110Z,3.77
2023-05-09T17:28:07.645Z,3.27
2023-05-09T17:30:34.539Z,4.60
2023-05-09T17:33:02.153Z,4.00
2023-05-09T17:35:30.280Z,4.30
2023-05-09T17:37:57.222Z,3.60
2023-05-09T17:40:24.162Z,4.10
2023-05-09T17:42:51.188Z,4.50
2023-05-09T17:45:18.082Z,4.20
2023-05-09T17:47:45.017Z,4.23
2023-05-09T17:50:14.583Z,3.67
2023-05-09T17:52:41.641Z,3.83
2023-05-09T17:55:08.838Z,3.70
2023-05-09T17:57:35.979Z,3.55
2023-05-09T18:00:03.982Z,4.20
2023-05-09T18:02:40.890Z,4.23
2023-05-09T18:05:11.203Z,11.30
2023-05-09T18:07:40.315Z,4.23
2023-05-09T18:10:08.850Z,4.27
2023-05-09T18:12:37.404Z,4.67
2023-05-09T18:15:05.280Z,4.40
2023-05-09T18:17:32.203Z,4.23
2023-05-09T18:19:59.205Z,4.73
2023-05-09T18:22:26.090Z,4.70
2023-05-09T18:24:53.222Z,4.00
2023-05-09T18:27:20.224Z,4.37
2023-05-09T18:29:47.557Z,4.23
2023-05-09T18:32:14.624Z,5.23
2023-05-09T18:34:42.066Z,4.23
2023-05-09T18:37:10.389Z,4.40
2023-05-09T18:39:37.316Z,5.23
2023-05-09T18:42:06.256Z,4.20
2023-05-09T18:44:33.154Z,4.27
2023-05-09T18:47:00.081Z,3.70
2023-05-09T18:49:27.112Z,4.70
2023-05-09T18:51:54.037Z,4.20
2023-05-09T18:54:20.932Z,4.40
2023-05-09T18:56:47.808Z,4.87
2023-05-09T18:59:16.313Z,4.90
2023-05-09T19:01:44.038Z,4.80
2023-05-09T19:04:11.084Z,4.63
2023-05-09T19:06:38.164Z,4.53
2023-05-09T19:09:05.600Z,4.23
2023-05-09T19:11:32.488Z,4.40
2023-05-09T19:13:59.661Z,5.17
2023-05-09T19:16:26.786Z,4.73
2023-05-09T19:18:58.086Z,6.30
2023-05-09T19:21:25.546Z,5.03
2023-05-09T19:23:52.572Z,5.10
2023-05-09T19:26:21.655Z,5.20
2023-05-09T19:28:48.597Z,5.30
2023-05-09T19:31:16.233Z,4.93
2023-05-09T19:33:45.587Z,5.40
2023-05-09T19:36:12.923Z,4.83
2023-05-09T19:38:39.958Z,4.70
2023-05-09T19:41:06.901Z,5.10
2023-05-09T19:43:33.773Z,5.30
2023-05-09T19:46:00.707Z,5.77
2023-05-09T19:48:27.618Z,5.00
2023-05-09T19:51:00.469Z,6.00
2023-05-09T19:53:27.461Z,5.70
2023-05-09T19:55:54.366Z,4.40
2023-05-09T19:58:21.280Z,5.17
2023-05-09T20:00:48.738Z,5.13
2023-05-09T20:03:15.776Z,4.50
2023-05-09T20:05:42.751Z,4.80
2023-05-09T20:08:09.680Z,4.63
2023-05-09T20:10:36.634Z,4.80
2023-05-09T20:13:04.405Z,4.97
2023-05-09T20:15:31.397Z,4.90
2023-05-09T20:17:58.561Z,5.27
2023-05-09T20:20:25.530Z,4.90
2023-05-09T20:22:52.433Z,5.07
2023-05-09T20:25:19.648Z,4.80
2023-05-09T20:27:46.554Z,4.77
2023-05-09T20:30:13.891Z,5.23
2023-05-09T20:32:41.074Z,5.07
2023-05-09T20:35:08.394Z,5.07
2023-05-09T20:37:36.199Z,5.90
2023-05-09T20:40:06.461Z,6.37
2023-05-09T20:42:33.625Z,4.80
2023-05-09T20:45:00.506Z,5.17
2023-05-09T20:47:27.385Z,4.90
2023-05-09T20:49:55.484Z,4.80
2023-05-09T20:52:23.645Z,6.00
2023-05-09T20:54:50.569Z,5.70
2023-05-09T20:57:17.418Z,5.63
2023-05-09T20:59:44.301Z,4.73
2023-05-09T21:02:11.279Z,4.90
2023-05-09T21:04:38.332Z,4.93
2023-05-09T21:07:05.193Z,6.13
2023-05-09T21:09:32.068Z,5.67
2023-05-09T21:12:00.596Z,5.60
2023-05-09T21:14:27.715Z,5.67
2023-05-09T21:16:57.905Z,5.17
2023-05-09T21:19:25.175Z,5.53
2023-05-09T21:21:52.082Z,6.00
2023-05-09T21:24:18.975Z,5.70
2023-05-09T21:26:45.883Z,5.70
2023-05-09T21:29:12.788Z,4.80
2023-05-09T21:31:39.822Z,5.40
2023-05-09T21:34:09.985Z,5.53
2023-05-09T21:36:38.701Z,5.50
2023-05-09T21:39:09.644Z,5.80
2023-05-09T21:41:38.687Z,5.00
2023-05-09T21:44:07.410Z,6.03
2023-05-09T21:46:35.216Z,5.30
2023-05-09T21:49:02.229Z,5.20
2023-05-09T21:51:29.620Z,4.90
2023-05-09T21:53:56.484Z,5.67
2023-05-09T21:56:23.586Z,5.27
2023-05-09T21:58:50.862Z,6.23
2023-05-09T22:01:19.301Z,5.80
2023-05-09T22:03:46.356Z,5.30
2023-05-09T22:06:13.651Z,5.00
2023-05-09T22:08:41.007Z,6.10
2023-05-09T22:11:07.891Z,5.10
2023-05-09T22:13:36.332Z,5.30
2023-05-09T22:16:03.869Z,5.67
2023-05-09T22:18:31.518Z,5.80
2023-05-09T22:20:59.302Z,5.10
2023-05-09T22:23:26.308Z,6.57
2023-05-09T22:25:53.376Z,6.00
2023-05-09T22:28:20.387Z,5.13
2023-05-09T22:30:47.298Z,5.77
2023-05-09T22:33:14.246Z,5.20
2023-05-09T22:35:41.302Z,6.00
2023-05-09T22:38:08.185Z,5.43
2023-05-09T22:40:35.108Z,5.87
2023-05-09T22:43:02.012Z,5.00
2023-05-09T22:45:28.916Z,6.37
2023-05-09T22:47:55.799Z,5.53
2023-05-09T22:50:23.059Z,5.90
2023-05-09T22:52:49.934Z,5.87
2023-05-09T22:55:16.836Z,5.20
2023-05-09T22:57:43.708Z,5.70
2023-05-09T23:00:11.341Z,5.73
2023-05-09T23:02:38.365Z,5.67
2023-05-09T23:05:06.257Z,6.03
2023-05-09T23:07:33.128Z,5.70
2023-05-09T23:09:59.996Z,5.80
2023-05-09T23:12:27.114Z,5.30
2023-05-09T23:14:53.976Z,5.03
2023-05-09T23:17:21.265Z,6.00
2023-05-09T23:19:48.156Z,6.00
2023-05-09T23:22:15.818Z,6.13
2023-05-09T23:24:42.671Z,6.23
2023-05-09T23:27:09.590Z,5.57
2023-05-09T23:29:36.566Z,6.50
2023-05-09T23:32:03.560Z,5.13
2023-05-09T23:34:30.974Z,5.63
2023-05-09T23:36:57.841Z,6.50
2023-05-09T23:39:24.707Z,6.30
2023-05-09T23:41:51.571Z,5.83
2023-05-09T23:44:18.572Z,6.30
2023-05-09T23:46:45.522Z,6.37
2023-05-09T23:49:14.973Z,5.93
2023-05-09T23:51:41.869Z,6.47
2023-05-09T23:54:08.780Z,6.10
2023-05-09T23:56:35.724Z,5.67
2023-05-09T23:59:02.599Z,5.30
